createdAt,value
2022-11-04T00:00:28.635Z,20.80
2022-11-04T00:02:59.233Z,20.80
2022-11-04T00:05:28.489Z,20.80
2022-11-04T00:08:16.565Z,20.80
2022-11-04T00:10:59.492Z,20.80
2022-11-04T00:13:30.804Z,20.80
2022-11-04T00:16:20.223Z,20.70
2022-11-04T00:18:49.400Z,20.70
2022-11-04T00:21:36.209Z,20.70
2022-11-04T00:24:25.318Z,20.70
2022-11-04T00:27:12.093Z,20.70
2022-11-04T00:29:41.285Z,20.70
2022-11-04T00:32:27.853Z,20.70
2022-11-04T00:34:57.357Z,20.70
2022-11-04T00:37:26.616Z,20.70
2022-11-04T00:39:57.181Z,20.70
2022-11-04T00:42:26.326Z,20.70
2022-11-04T00:44:55.514Z,20.70
2022-11-04T00:47:24.925Z,20.70
2022-11-04T00:49:54.255Z,20.70
2022-11-04T00:52:23.665Z,20.60
2022-11-04T00:54:52.859Z,20.60
2022-11-04T00:57:23.459Z,20.60
2022-11-04T00:59:52.567Z,20.60
2022-11-04T01:02:21.952Z,20.60
2022-11-04T01:04:51.371Z,20.60
2022-11-04T01:07:20.517Z,20.60
2022-11-04T01:09:51.128Z,20.60
2022-11-04T01:12:20.242Z,20.60
2022-11-04T01:14:50.869Z,20.60
2022-11-04T01:17:20.154Z,20.60
2022-11-04T01:19:49.264Z,20.60
2022-11-04T01:22:18.309Z,20.60
2022-11-04T01:24:47.411Z,20.60
2022-11-04T01:27:16.565Z,20.60
2022-11-04T01:29:45.669Z,20.60
2022-11-04T01:32:16.216Z,20.50
2022-11-04T01:34:45.396Z,20.50
2022-11-04T01:37:14.454Z,20.50
2022-11-04T01:39:44.052Z,20.50
2022-11-04T01:42:16.514Z,20.50
2022-11-04T01:44:53.022Z,20.50
2022-11-04T01:47:28.120Z,20.50
2022-11-04T01:50:01.982Z,20.50
2022-11-04T01:52:35.573Z,20.50
2022-11-04T01:55:09.647Z,20.50
2022-11-04T01:57:42.707Z,20.50
2022-11-04T02:00:13.879Z,20.50
2022-11-04T02:02:55.518Z,20.40
2022-11-04T02:05:25.253Z,20.50
2022-11-04T02:07:59.180Z,20.40
2022-11-04T02:10:30.466Z,20.40
2022-11-04T02:13:01.450Z,20.40
2022-11-04T02:15:39.207Z,20.40
2022-11-04T02:18:25.863Z,20.40
2022-11-04T02:21:14.626Z,20.40
2022-11-04T02:24:16.090Z,20.40
2022-11-04T02:27:17.112Z,20.40
2022-11-04T02:30:07.343Z,20.40
2022-11-04T02:33:04.918Z,20.40
2022-11-04T02:35:43.551Z,20.40
2022-11-04T02:38:20.378Z,20.40
2022-11-04T02:41:01.539Z,20.30
2022-11-04T02:43:37.472Z,20.40
2022-11-04T02:46:17.389Z,20.30
2022-11-04T02:48:50.883Z,20.30
2022-11-04T02:51:24.146Z,20.30
2022-11-04T02:54:01.601Z,20.30
2022-11-04T02:56:32.736Z,20.30
2022-11-04T02:59:06.713Z,20.30
2022-11-04T03:01:40.702Z,20.30
2022-11-04T03:04:15.461Z,20.30
2022-11-04T03:06:48.972Z,20.30
2022-11-04T03:09:20.406Z,20.30
2022-11-04T03:11:55.223Z,20.30
2022-11-04T03:14:30.282Z,20.30
2022-11-04T03:17:04.398Z,20.30
2022-11-04T03:19:41.523Z,20.30
2022-11-04T03:22:14.550Z,20.30
2022-11-04T03:24:46.035Z,20.20
2022-11-04T03:27:21.887Z,20.20
2022-11-04T03:30:00.499Z,20.20
2022-11-04T03:32:39.601Z,20.20
2022-11-04T03:35:09.769Z,20.20
2022-11-04T03:37:38.991Z,20.20
2022-11-04T03:40:09.591Z,20.20
2022-11-04T03:42:43.477Z,20.20
2022-11-04T03:45:14.261Z,20.20
2022-11-04T03:47:45.305Z,20.20
2022-11-04T03:50:20.544Z,20.20
2022-11-04T03:52:49.768Z,20.20
2022-11-04T03:55:18.995Z,20.20
2022-11-04T03:57:53.634Z,20.20
2022-11-04T04:00:24.167Z,20.20
2022-11-04T04:03:07.008Z,20.20
2022-11-04T04:05:42.407Z,20.20
2022-11-04T04:08:17.343Z,20.20
2022-11-04T04:10:54.449Z,20.10
2022-11-04T04:13:35.580Z,20.20
2022-11-04T04:16:10.006Z,20.20
2022-11-04T04:18:45.690Z,20.10
2022-11-04T04:21:20.770Z,20.10
2022-11-04T04:24:09.853Z,20.10
2022-11-04T04:26:57.917Z,20.10
2022-11-04T04:29:29.250Z,20.10
2022-11-04T04:32:00.817Z,20.10
2022-11-04T04:34:33.505Z,20.10
2022-11-04T04:37:05.539Z,20.10
2022-11-04T04:39:57.100Z,20.10
2022-11-04T04:42:43.885Z,20.10
2022-11-04T04:45:22.936Z,20.10
2022-11-04T04:47:53.113Z,20.10
2022-11-04T04:50:24.194Z,20.00
2022-11-04T04:52:56.315Z,20.00
2022-11-04T04:55:25.603Z,20.00
2022-11-04T04:57:54.687Z,20.00
2022-11-04T05:00:24.405Z,20.00
2022-11-04T05:02:53.957Z,20.00
2022-11-04T05:05:24.557Z,20.00
2022-11-04T05:07:53.739Z,20.00
2022-11-04T05:10:23.113Z,20.00
2022-11-04T05:13:09.789Z,20.00
2022-11-04T05:15:39.056Z,20.00
2022-11-04T05:18:08.442Z,20.00
2022-11-04T05:20:40.524Z,20.00
2022-11-04T05:23:12.258Z,20.00
2022-11-04T05:25:42.255Z,20.00
2022-11-04T05:28:11.675Z,20.00
2022-11-04T05:30:41.591Z,19.90
2022-11-04T05:33:11.058Z,19.90
2022-11-04T05:35:42.017Z,19.90
2022-11-04T05:38:11.182Z,19.90
2022-11-04T05:40:40.344Z,19.90
2022-11-04T05:43:09.991Z,19.90
2022-11-04T05:45:39.374Z,19.90
2022-11-04T05:48:08.551Z,19.90
2022-11-04T05:50:38.553Z,19.90
2022-11-04T05:53:09.200Z,19.90
2022-11-04T05:55:38.860Z,20.00
2022-11-04T05:58:08.226Z,19.90
2022-11-04T06:00:37.744Z,19.90
2022-11-04T06:03:08.495Z,20.00
2022-11-04T06:05:41.175Z,20.00
2022-11-04T06:08:12.198Z,20.00
2022-11-04T06:10:41.613Z,20.00
2022-11-04T06:13:10.706Z,20.10
2022-11-04T06:15:39.975Z,20.10
2022-11-04T06:18:09.513Z,20.10
2022-11-04T06:20:38.938Z,20.20
2022-11-04T06:23:08.042Z,20.20
2022-11-04T06:25:38.607Z,20.20
2022-11-04T06:28:08.094Z,20.30
2022-11-04T06:30:37.567Z,20.40
2022-11-04T06:33:06.661Z,20.50
2022-11-04T06:35:36.039Z,20.50
2022-11-04T06:38:05.131Z,20.50
2022-11-04T06:40:34.311Z,20.40
2022-11-04T06:43:05.934Z,20.40
2022-11-04T06:45:35.425Z,20.40
2022-11-04T06:48:04.959Z,20.30
2022-11-04T06:50:34.137Z,20.30
2022-11-04T06:53:03.232Z,20.30
2022-11-04T06:55:32.381Z,20.30
2022-11-04T06:58:01.529Z,20.30
2022-11-04T07:00:32.514Z,20.30
2022-11-04T07:03:01.702Z,20.30
2022-11-04T07:05:31.094Z,20.30
2022-11-04T07:08:01.251Z,20.30
2022-11-04T07:10:30.418Z,20.30
2022-11-04T07:12:59.585Z,20.20
2022-11-04T07:15:28.824Z,20.20
2022-11-04T07:18:00.538Z,20.20
2022-11-04T07:20:29.943Z,20.20
2022-11-04T07:22:59.137Z,20.20
2022-11-04T07:25:28.315Z,20.20
2022-11-04T07:28:01.089Z,20.20
2022-11-04T07:30:31.989Z,20.20
2022-11-04T07:33:02.624Z,20.20
2022-11-04T07:35:31.980Z,20.20
2022-11-04T07:38:01.348Z,20.20
2022-11-04T07:40:30.522Z,20.20
2022-11-04T07:42:59.750Z,20.20
2022-11-04T07:45:38.440Z,20.20
2022-11-04T07:48:09.417Z,20.20
2022-11-04T07:50:40.641Z,20.10
2022-11-04T07:53:12.345Z,20.10
2022-11-04T07:55:43.570Z,20.10
2022-11-04T07:58:12.965Z,20.10
2022-11-04T08:00:42.325Z,20.10
2022-11-04T08:03:13.255Z,20.10
2022-11-04T08:05:43.130Z,20.10
2022-11-04T08:08:12.257Z,20.10
2022-11-04T08:10:41.485Z,20.10
2022-11-04T08:13:10.959Z,20.10
2022-11-04T08:15:40.428Z,20.10
2022-11-04T08:18:10.854Z,20.10
2022-11-04T08:20:41.504Z,20.10
2022-11-04T08:23:12.433Z,20.10
2022-11-04T08:25:42.064Z,20.10
2022-11-04T08:28:17.731Z,20.10
2022-11-04T08:30:58.516Z,20.10
2022-11-04T08:33:28.551Z,20.10
2022-11-04T08:36:02.580Z,20.00
2022-11-04T08:38:31.995Z,20.00
2022-11-04T08:41:02.772Z,20.00
2022-11-04T08:43:32.665Z,20.10
2022-11-04T08:46:01.879Z,20.10
2022-11-04T08:48:31.052Z,20.20
2022-11-04T08:51:01.730Z,20.20
2022-11-04T08:53:30.971Z,20.30
2022-11-04T08:56:00.365Z,20.40
2022-11-04T08:58:29.767Z,20.40
2022-11-04T09:00:59.337Z,20.50
2022-11-04T09:03:28.660Z,20.50
2022-11-04T09:06:00.822Z,20.50
2022-11-04T09:08:30.875Z,20.60
2022-11-04T09:11:00.826Z,20.60
2022-11-04T09:13:30.086Z,20.60
2022-11-04T09:15:59.230Z,20.70
2022-11-04T09:18:28.353Z,20.70
2022-11-04T09:21:00.498Z,20.70
2022-11-04T09:23:31.226Z,20.70
2022-11-04T09:26:05.267Z,20.70
2022-11-04T09:28:34.587Z,20.70
2022-11-04T09:31:07.758Z,20.70
2022-11-04T09:33:37.286Z,20.70
2022-11-04T09:36:08.070Z,20.70
2022-11-04T09:38:40.204Z,20.80
2022-11-04T09:41:39.048Z,20.80
2022-11-04T09:44:18.394Z,20.80
2022-11-04T09:46:49.648Z,20.80
2022-11-04T09:49:19.256Z,20.80
2022-11-04T09:51:56.575Z,20.80
2022-11-04T09:54:47.489Z,20.80
2022-11-04T09:57:20.404Z,20.80
2022-11-04T09:59:50.369Z,20.80
2022-11-04T10:02:39.490Z,20.90
2022-11-04T10:05:20.426Z,20.90
2022-11-04T10:08:09.234Z,20.90
2022-11-04T10:10:50.448Z,20.90
2022-11-04T10:13:29.544Z,20.90
2022-11-04T10:16:14.394Z,20.90
2022-11-04T10:19:03.804Z,20.90
2022-11-04T10:21:43.367Z,20.90
2022-11-04T10:24:20.781Z,21.00
2022-11-04T10:27:00.832Z,21.00
2022-11-04T10:29:36.935Z,20.90
2022-11-04T10:32:19.445Z,20.90
2022-11-04T10:34:56.401Z,20.90
2022-11-04T10:37:27.444Z,20.90
2022-11-04T10:40:02.602Z,21.00
2022-11-04T10:42:34.355Z,21.00
2022-11-04T10:45:03.842Z,21.00
2022-11-04T10:47:41.726Z,20.90
2022-11-04T10:50:32.236Z,20.90
2022-11-04T10:53:13.123Z,21.00
2022-11-04T10:55:49.489Z,20.90
2022-11-04T10:58:25.258Z,20.80
2022-11-04T11:00:55.945Z,20.70
2022-11-04T11:03:28.941Z,20.70
2022-11-04T11:06:14.516Z,20.70
2022-11-04T11:08:45.618Z,20.60
2022-11-04T11:11:16.359Z,20.60
2022-11-04T11:13:47.686Z,20.60
2022-11-04T11:16:20.889Z,20.60
2022-11-04T11:19:15.395Z,20.60
2022-11-04T11:21:46.349Z,20.60
2022-11-04T11:24:20.194Z,20.60
2022-11-04T11:26:51.708Z,20.50
2022-11-04T11:29:25.745Z,20.50
2022-11-04T11:31:57.002Z,20.50
2022-11-04T11:34:30.818Z,20.50
2022-11-04T11:37:03.172Z,20.50
2022-11-04T11:39:34.110Z,20.50
2022-11-04T11:42:07.693Z,20.50
2022-11-04T11:44:44.643Z,20.50
2022-11-04T11:47:21.933Z,20.50
2022-11-04T11:50:07.770Z,20.40
2022-11-04T11:52:38.542Z,20.40
2022-11-04T11:55:12.319Z,20.40
2022-11-04T12:00:54.668Z,20.40
2022-11-04T12:09:36.750Z,20.40
2022-11-04T12:12:29.332Z,20.40
2022-11-04T12:15:15.354Z,20.40
2022-11-04T12:17:57.754Z,20.40
2022-11-04T12:20:38.486Z,20.40
2022-11-04T12:23:17.775Z,20.40
2022-11-04T12:25:54.927Z,20.40
2022-11-04T12:28:33.107Z,20.40
2022-11-04T12:31:16.240Z,20.40
2022-11-04T12:33:54.081Z,20.40
2022-11-04T12:36:33.738Z,20.40
2022-11-04T12:39:28.963Z,20.40
2022-11-04T12:42:20.738Z,20.40
2022-11-04T12:44:59.831Z,20.30
2022-11-04T12:47:37.621Z,20.30
2022-11-04T12:50:48.923Z,20.30
2022-11-04T12:53:33.080Z,20.30
2022-11-04T12:56:09.386Z,20.30
2022-11-04T12:58:55.109Z,20.30
2022-11-04T13:01:31.664Z,20.30
2022-11-04T13:04:06.721Z,20.30
2022-11-04T13:06:41.501Z,20.30
2022-11-04T13:09:16.218Z,20.30
2022-11-04T13:11:52.056Z,20.30
2022-11-04T13:14:29.771Z,20.30
2022-11-04T13:17:02.393Z,20.30
2022-11-04T13:19:36.129Z,20.30
2022-11-04T13:22:10.050Z,20.30
2022-11-04T13:24:47.664Z,20.30
2022-11-04T13:27:22.725Z,20.40
2022-11-04T13:30:09.096Z,20.40
2022-11-04T13:32:43.064Z,20.50
2022-11-04T13:35:22.519Z,20.50
2022-11-04T13:38:00.042Z,20.60
2022-11-04T13:40:42.128Z,20.60
2022-11-04T13:43:41.193Z,20.70
2022-11-04T13:46:30.159Z,20.70
2022-11-04T13:49:06.473Z,20.70
2022-11-04T13:51:39.165Z,20.70
2022-11-04T13:54:24.253Z,20.80
2022-11-04T13:57:07.146Z,20.80
2022-11-04T13:59:37.312Z,20.80
2022-11-04T14:02:38.859Z,20.90
2022-11-04T14:05:57.777Z,20.90
2022-11-04T14:08:27.229Z,20.90
2022-11-04T14:11:08.778Z,21.00
2022-11-04T14:14:05.479Z,21.00
2022-11-04T14:16:46.236Z,21.00
2022-11-04T14:19:58.443Z,21.00
2022-11-04T14:22:32.820Z,21.00
2022-11-04T14:25:03.925Z,21.00
2022-11-04T14:27:40.350Z,21.10
2022-11-04T14:30:46.890Z,21.10
2022-11-04T14:33:37.413Z,21.10
2022-11-04T14:36:25.202Z,21.10
2022-11-04T14:38:56.718Z,21.10
2022-11-04T14:41:50.411Z,21.00
2022-11-04T14:44:32.584Z,21.10
2022-11-04T14:47:08.988Z,21.10
2022-11-04T14:49:43.857Z,21.10
2022-11-04T14:52:25.850Z,21.10
2022-11-04T14:54:59.542Z,21.10
2022-11-04T14:57:36.842Z,21.10
2022-11-04T15:00:35.905Z,21.10
2022-11-04T15:03:57.605Z,21.10
2022-11-04T15:06:08.381Z,21.10
2022-11-04T15:08:39.298Z,21.10
2022-11-04T15:11:17.514Z,21.10
2022-11-04T15:13:48.587Z,21.10
2022-11-04T15:16:21.879Z,21.10
2022-11-04T15:18:52.999Z,21.10
2022-11-04T15:21:24.206Z,21.10
2022-11-04T15:23:55.799Z,21.10
2022-11-04T15:26:30.016Z,21.10
2022-11-04T15:29:01.049Z,21.10
2022-11-04T15:31:31.780Z,21.20
2022-11-04T15:34:03.070Z,21.20
2022-11-04T15:36:36.477Z,21.20
2022-11-04T15:39:12.310Z,21.20
2022-11-04T15:42:00.455Z,21.20
2022-11-04T15:44:31.940Z,21.20
2022-11-04T15:47:02.782Z,21.20
2022-11-04T15:49:35.104Z,21.30
2022-11-04T15:52:10.293Z,21.20
2022-11-04T15:54:42.503Z,21.20
2022-11-04T15:57:16.506Z,21.20
2022-11-04T15:59:50.832Z,21.20
2022-11-04T16:02:28.896Z,21.30
2022-11-04T16:05:21.290Z,21.30
2022-11-04T16:07:53.389Z,21.30
2022-11-04T16:10:26.541Z,21.30
2022-11-04T16:12:58.440Z,21.30
2022-11-04T16:15:36.023Z,21.30
2022-11-04T16:18:07.111Z,21.30
2022-11-04T16:20:37.083Z,21.30
2022-11-04T16:23:08.046Z,21.30
2022-11-04T16:25:37.881Z,21.30
2022-11-04T16:28:07.112Z,21.30
2022-11-04T16:30:36.180Z,21.30
2022-11-04T16:33:18.570Z,21.30
2022-11-04T16:35:47.737Z,21.20
2022-11-04T16:38:18.308Z,21.30
2022-11-04T16:40:50.226Z,21.30
2022-11-04T16:43:21.932Z,21.30
2022-11-04T16:45:54.142Z,21.30
2022-11-04T16:48:24.859Z,21.30
2022-11-04T16:50:55.226Z,21.30
2022-11-04T16:53:25.857Z,21.30
2022-11-04T16:55:57.071Z,21.30
2022-11-04T16:58:26.468Z,21.30
2022-11-04T17:00:57.841Z,21.30
2022-11-04T17:03:29.124Z,21.30
2022-11-04T17:05:58.989Z,21.30
2022-11-04T17:08:29.726Z,21.30
2022-11-04T17:10:59.072Z,21.40
2022-11-04T17:13:33.449Z,21.40
2022-11-04T17:16:06.437Z,21.40
2022-11-04T17:18:36.626Z,21.40
2022-11-04T17:21:09.123Z,21.40
2022-11-04T17:23:39.790Z,21.40
2022-11-04T17:26:09.113Z,21.40
2022-11-04T17:28:38.439Z,21.40
2022-11-04T17:31:08.096Z,21.50
2022-11-04T17:33:37.278Z,21.50
2022-11-04T17:36:07.921Z,21.50
2022-11-04T17:38:38.659Z,21.50
2022-11-04T17:41:25.533Z,21.50
2022-11-04T17:44:05.157Z,21.50
2022-11-04T17:46:35.773Z,21.50
2022-11-04T17:49:13.911Z,21.50
2022-11-04T17:51:46.691Z,21.50
2022-11-04T17:54:18.034Z,21.50
2022-11-04T17:56:47.837Z,21.50
2022-11-04T17:59:18.495Z,21.50
2022-11-04T18:01:48.239Z,21.60
2022-11-04T18:04:19.742Z,21.50
2022-11-04T18:06:49.913Z,21.60
2022-11-04T18:09:20.806Z,21.60
2022-11-04T18:12:07.484Z,21.60
2022-11-04T18:14:36.861Z,21.60
2022-11-04T18:17:06.162Z,21.60
2022-11-04T18:19:35.452Z,21.60
2022-11-04T18:22:05.080Z,21.60
2022-11-04T18:24:36.210Z,21.60
2022-11-04T18:27:05.574Z,21.60
2022-11-04T18:29:34.771Z,21.60
2022-11-04T18:32:04.265Z,21.60
2022-11-04T18:34:34.492Z,21.60
2022-11-04T18:37:03.864Z,21.60
2022-11-04T18:39:34.612Z,21.70
2022-11-04T18:42:03.893Z,21.70
2022-11-04T18:44:33.205Z,21.70
2022-11-04T18:47:02.429Z,21.70
2022-11-04T18:49:31.714Z,21.60
2022-11-04T18:52:00.894Z,21.60
2022-11-04T18:54:30.173Z,21.60
2022-11-04T18:57:00.840Z,21.60
2022-11-04T18:59:30.100Z,21.60
2022-11-04T19:01:59.340Z,21.60
2022-11-04T19:04:28.561Z,21.60
2022-11-04T19:06:57.645Z,21.60
2022-11-04T19:12:34.966Z,21.60
2022-11-04T19:15:05.167Z,21.60
2022-11-04T19:17:36.336Z,21.60
2022-11-04T19:20:11.724Z,21.70
2022-11-04T19:22:41.993Z,21.70
2022-11-04T19:25:11.987Z,21.70
2022-11-04T19:27:42.732Z,21.80
2022-11-04T19:30:12.982Z,21.80
2022-11-04T19:32:42.127Z,21.80
2022-11-04T19:35:11.274Z,21.80
2022-11-04T19:37:40.657Z,21.80
2022-11-04T19:40:11.531Z,21.80
2022-11-04T19:42:59.781Z,21.80
2022-11-04T19:45:29.238Z,21.80
2022-11-04T19:47:58.451Z,21.80
2022-11-04T19:50:27.845Z,21.80
2022-11-04T19:52:56.989Z,21.80
2022-11-04T19:55:26.431Z,21.80
2022-11-04T19:57:57.041Z,21.80
2022-11-04T20:00:26.485Z,21.80
2022-11-04T20:02:55.908Z,21.80
2022-11-04T20:05:25.429Z,21.90
2022-11-04T20:07:55.228Z,21.90
2022-11-04T20:10:25.061Z,21.90
2022-11-04T20:13:11.936Z,21.90
2022-11-04T20:15:42.726Z,21.90
2022-11-04T20:18:12.129Z,21.90
2022-11-04T20:20:41.835Z,21.90
2022-11-04T20:23:12.496Z,21.90
2022-11-04T20:25:42.148Z,22.00
2022-11-04T20:28:11.630Z,22.00
2022-11-04T20:30:42.583Z,22.00
2022-11-04T20:33:11.787Z,22.00
2022-11-04T20:35:41.524Z,22.00
2022-11-04T20:38:11.056Z,22.00
2022-11-04T20:40:40.514Z,22.00
2022-11-04T20:43:10.064Z,22.00
2022-11-04T20:45:42.137Z,22.10
2022-11-04T20:48:11.618Z,22.00
2022-11-04T20:50:40.996Z,22.10
2022-11-04T20:53:10.271Z,22.00
2022-11-04T20:55:41.414Z,22.00
2022-11-04T20:58:10.929Z,22.10
2022-11-04T21:00:42.072Z,22.00
2022-11-04T21:03:11.360Z,22.10
2022-11-04T21:05:42.014Z,22.10
2022-11-04T21:08:11.512Z,22.00
2022-11-04T21:10:41.841Z,21.90
2022-11-04T21:13:11.134Z,21.80
2022-11-04T21:15:41.713Z,21.80
2022-11-04T21:18:12.924Z,21.70
2022-11-04T21:20:43.765Z,21.60
2022-11-04T21:23:14.293Z,21.60
2022-11-04T21:25:45.736Z,21.50
2022-11-04T21:28:15.695Z,21.40
2022-11-04T21:30:49.416Z,21.40
2022-11-04T21:33:18.960Z,21.40
2022-11-04T21:35:48.908Z,21.30
2022-11-04T21:38:19.494Z,21.30
2022-11-04T21:40:48.611Z,21.30
2022-11-04T21:43:18.001Z,21.30
2022-11-04T21:45:48.519Z,21.20
2022-11-04T21:48:17.877Z,21.20
2022-11-04T21:50:47.072Z,21.20
2022-11-04T21:53:17.654Z,21.20
2022-11-04T21:55:47.887Z,21.20
2022-11-04T21:58:16.986Z,21.10
2022-11-04T22:00:47.882Z,21.10
2022-11-04T22:03:17.073Z,21.10
2022-11-04T22:05:46.190Z,21.10
2022-11-04T22:08:18.559Z,21.10
2022-11-04T22:10:47.619Z,21.10
2022-11-04T22:13:16.930Z,21.00
2022-11-04T22:15:59.658Z,21.00
2022-11-04T22:18:30.677Z,21.00
2022-11-04T22:21:04.247Z,21.00
2022-11-04T22:23:35.530Z,21.00
2022-11-04T22:26:06.587Z,21.00
2022-11-04T22:28:35.819Z,21.00
2022-11-04T22:31:12.023Z,21.00
2022-11-04T22:33:41.455Z,21.00
2022-11-04T22:36:12.316Z,20.90
2022-11-04T22:38:42.944Z,20.90
2022-11-04T22:41:14.593Z,20.90
2022-11-04T22:43:43.758Z,20.90
2022-11-04T22:46:17.333Z,20.80
2022-11-04T22:48:46.638Z,20.90
2022-11-04T22:51:15.740Z,20.80
2022-11-04T22:53:45.437Z,20.80
2022-11-04T22:56:16.187Z,20.80
2022-11-04T22:58:45.331Z,20.80
2022-11-04T23:01:17.159Z,20.80
2022-11-04T23:03:49.582Z,20.70
2022-11-04T23:06:18.929Z,20.70
2022-11-04T23:08:48.056Z,20.70
2022-11-04T23:11:36.511Z,20.70
2022-11-04T23:14:23.111Z,20.70
2022-11-04T23:17:11.208Z,20.70
2022-11-04T23:19:40.910Z,20.60
2022-11-04T23:22:28.200Z,20.60
2022-11-04T23:25:06.923Z,20.60
2022-11-04T23:27:54.760Z,20.60
2022-11-04T23:30:25.841Z,20.60
2022-11-04T23:32:58.583Z,20.60
2022-11-04T23:35:48.418Z,20.60
2022-11-04T23:38:18.213Z,20.60
2022-11-04T23:41:08.088Z,20.60
2022-11-04T23:43:36.693Z,20.60
2022-11-04T23:46:23.311Z,20.50
2022-11-04T23:49:22.621Z,20.50
2022-11-04T23:52:09.160Z,20.50
2022-11-04T23:54:55.745Z,20.50
2022-11-04T23:57:42.510Z,20.50
